Time;durP1;ratioP1;P1;durP2;ratioP2;P2;SDS_P1;SDS_P2;PMS_P1;PMS_P2;Temp;Humidity;BMP_temperature;BMP_pressure;BME280_temperature;BME280_humidity;BME280_pressure;Samples;Min_cycle;Max_cycle;Signal;HPM_P1;HPM_P2
2022/10/13 00:00:31;;;;;;;17.10;7.45;;;11.10;95.80;;;;;;4232328;28;20085;-87
2022/10/13 00:02:31;;;;;;;16.85;6.40;;;11.10;95.90;;;;;;4233448;28;20501;-88
2022/10/13 00:04:32;;;;;;;17.92;7.22;;;11.00;95.90;;;;;;4233618;28;20055;-87
2022/10/13 00:06:33;;;;;;;19.98;7.65;;;11.00;96.10;;;;;;4232552;28;20044;-87
2022/10/13 00:08:34;;;;;;;18.13;6.25;;;11.10;96.40;;;;;;4243816;28;20481;-86
2022/10/13 00:10:37;;;;;;;22.70;7.00;;;11.00;96.00;;;;;;4244486;28;20070;-87
2022/10/13 00:12:38;;;;;;;20.70;6.50;;;11.00;96.10;;;;;;4234366;28;20052;-87
2022/10/13 00:14:40;;;;;;;20.50;7.35;;;11.20;96.20;;;;;;4215597;28;20516;-88
2022/10/13 00:16:41;;;;;;;21.17;7.95;;;10.90;96.50;;;;;;4215532;28;20090;-87
2022/10/13 00:18:42;;;;;;;19.25;7.18;;;10.90;96.70;;;;;;4233712;28;20485;-87
2022/10/13 00:20:48;;;;;;;15.27;6.53;;;11.00;96.50;;;;;;4233237;28;20055;-87
2022/10/13 00:22:49;;;;;;;22.70;8.25;;;11.00;96.40;;;;;;4232879;28;20043;-87
2022/10/13 00:24:51;;;;;;;22.10;7.97;;;11.00;96.80;;;;;;4232880;28;20055;-87
2022/10/13 00:26:53;;;;;;;17.10;7.90;;;11.00;96.70;;;;;;4220246;28;20443;-87
2022/10/13 00:28:54;;;;;;;20.63;8.15;;;11.00;97.10;;;;;;4231260;28;20132;-86
2022/10/13 00:30:55;;;;;;;17.77;7.30;;;11.00;97.00;;;;;;4233048;28;20056;-86
2022/10/13 00:32:56;;;;;;;24.05;8.63;;;10.90;96.90;;;;;;4232493;28;20083;-86
2022/10/13 00:34:57;;;;;;;15.50;7.63;;;10.90;97.40;;;;;;4232668;28;20467;-87
2022/10/13 00:36:58;;;;;;;21.02;8.77;;;11.00;97.20;;;;;;4215573;28;20059;-86
2022/10/13 00:38:58;;;;;;;17.65;7.38;;;11.00;97.10;;;;;;4232767;28;20116;-87
2022/10/13 00:40:59;;;;;;;22.30;7.40;;;10.90;97.40;;;;;;4233371;28;20549;-86
2022/10/13 00:43:00;;;;;;;21.30;8.15;;;11.00;97.20;;;;;;4215615;28;20425;-87
2022/10/13 00:45:23;;;;;;;17.75;7.68;;;10.40;97.20;;;;;;4233552;28;20071;-87
2022/10/13 00:47:25;;;;;;;21.13;7.40;;;11.00;96.90;;;;;;4224894;28;20090;-87
2022/10/13 00:49:26;;;;;;;21.40;7.45;;;11.00;97.10;;;;;;4216953;28;20040;-87
2022/10/13 00:51:30;;;;;;;21.88;8.55;;;10.70;97.20;;;;;;4250469;27;20078;-87
2022/10/13 00:53:35;;;;;;;21.75;8.05;;;10.90;97.20;;;;;;4217272;28;20097;-86
2022/10/13 00:55:40;;;;;;;19.75;7.97;;;10.90;97.30;;;;;;4215902;28;20044;-87
2022/10/13 00:57:45;;;;;;;19.10;8.10;;;10.90;97.30;;;;;;4199409;28;20482;-86
2022/10/13 00:59:47;;;;;;;16.15;7.38;;;10.90;97.50;;;;;;4216567;28;20052;-87
2022/10/13 01:01:50;;;;;;;16.73;7.13;;;10.90;97.70;;;;;;4216146;28;20409;-86
2022/10/13 01:03:51;;;;;;;19.77;9.60;;;10.90;97.50;;;;;;4200014;28;20053;-86
2022/10/13 01:05:56;;;;;;;21.20;8.45;;;11.00;97.90;;;;;;4216836;28;20044;-86
2022/10/13 01:07:58;;;;;;;19.67;7.47;;;10.80;97.50;;;;;;4199083;28;20052;-87
2022/10/13 01:10:01;;;;;;;19.55;7.80;;;11.00;97.50;;;;;;4215925;28;20051;-87
2022/10/13 01:12:25;;;;;;;18.60;8.38;;;11.00;97.50;;;;;;4215536;28;20054;-87
2022/10/13 01:14:42;;;;;;;22.08;7.57;;;10.70;97.60;;;;;;4216197;28;20044;-87
2022/10/13 01:17:24;;;;;;;20.58;7.47;;;11.00;97.60;;;;;;4216448;28;20071;-86
2022/10/13 01:19:24;;;;;;;17.70;7.43;;;11.00;97.60;;;;;;4165573;28;20048;-87
2022/10/13 01:21:40;;;;;;;17.08;8.02;;;11.00;97.80;;;;;;4214446;28;20044;-86
2022/10/13 01:24:17;;;;;;;17.98;7.88;;;11.00;97.70;;;;;;4215775;28;20079;-87
2022/10/13 01:26:27;;;;;;;19.88;9.10;;;10.90;98.00;;;;;;4199105;28;20040;-87
2022/10/13 01:29:09;;;;;;;22.05;8.38;;;10.90;97.90;;;;;;4216032;28;20898;-87
2022/10/13 01:31:35;;;;;;;21.00;10.02;;;10.90;97.90;;;;;;4198299;28;20136;-87
2022/10/13 01:34:02;;;;;;;17.45;7.80;;;10.90;98.10;;;;;;4217071;28;20036;-87
2022/10/13 01:36:34;;;;;;;19.88;8.02;;;10.90;97.80;;;;;;4207058;28;20079;-87
2022/10/13 01:38:45;;;;;;;14.43;8.27;;;10.90;98.10;;;;;;4215508;28;20588;-87
2022/10/13 01:41:17;;;;;;;17.20;7.50;;;10.80;98.10;;;;;;4239579;27;20050;-87
2022/10/13 01:43:28;;;;;;;20.20;7.68;;;10.90;98.30;;;;;;4231930;28;20047;-87
2022/10/13 01:45:41;;;;;;;16.40;8.15;;;10.90;98.20;;;;;;4233245;28;20040;-87
2022/10/13 01:47:44;;;;;;;17.20;7.57;;;10.80;98.30;;;;;;4232399;28;20058;-87
2022/10/13 01:49:45;;;;;;;20.48;8.00;;;10.80;98.30;;;;;;4214149;28;20216;-87
2022/10/13 01:51:47;;;;;;;19.90;7.90;;;10.80;98.40;;;;;;4214423;28;20122;-87
2022/10/13 01:53:49;;;;;;;22.48;8.40;;;10.80;98.40;;;;;;4232023;28;20119;-87
2022/10/13 01:55:52;;;;;;;21.30;8.85;;;10.80;98.60;;;;;;4230634;28;20425;-87
2022/10/13 01:57:53;;;;;;;21.60;7.32;;;10.70;98.60;;;;;;4230452;28;20047;-87
2022/10/13 01:59:53;;;;;;;20.45;7.60;;;10.70;98.70;;;;;;4213887;28;20594;-87
2022/10/13 02:02:17;;;;;;;18.48;7.78;;;10.70;98.70;;;;;;4213338;28;20437;-88
2022/10/13 02:04:59;;;;;;;23.02;8.70;;;10.70;98.80;;;;;;4209255;28;20123;-87
2022/10/13 02:07:27;;;;;;;15.45;7.68;;;10.70;98.90;;;;;;4186898;28;20068;-87
2022/10/13 02:10:13;;;;;;;18.75;8.32;;;10.70;99.00;;;;;;4214159;28;20085;-87
2022/10/13 02:12:38;;;;;;;20.48;7.75;;;10.60;99.20;;;;;;4197819;28;20123;-87
2022/10/13 02:14:42;;;;;;;17.38;8.05;;;10.60;99.10;;;;;;4215198;28;20523;-87
2022/10/13 02:16:45;;;;;;;25.13;8.70;;;10.60;98.90;;;;;;4198122;28;20064;-87
2022/10/13 02:18:47;;;;;;;20.20;7.75;;;10.60;98.80;;;;;;4198308;28;20082;-87
2022/10/13 02:20:49;;;;;;;19.92;7.82;;;10.60;98.90;;;;;;4214591;28;20071;-87
2022/10/13 02:22:55;;;;;;;21.30;8.00;;;10.60;98.90;;;;;;4205731;28;20051;-87
2022/10/13 02:24:56;;;;;;;17.33;6.75;;;10.60;99.00;;;;;;4214802;28;20051;-88
2022/10/13 02:26:57;;;;;;;15.88;7.65;;;10.60;99.00;;;;;;4232031;28;20421;-88
2022/10/13 02:28:58;;;;;;;20.30;8.50;;;10.60;99.10;;;;;;4232721;28;20039;-88
2022/10/13 02:30:58;;;;;;;24.38;8.55;;;10.50;99.10;;;;;;4214942;28;20383;-88
2022/10/13 02:33:00;;;;;;;19.60;7.60;;;10.50;99.10;;;;;;4231155;28;20081;-87
2022/10/13 02:35:01;;;;;;;20.98;8.52;;;10.50;99.30;;;;;;4232799;28;20522;-87
2022/10/13 02:37:01;;;;;;;17.67;7.78;;;10.50;99.50;;;;;;4231152;28;20043;-87
2022/10/13 02:39:04;;;;;;;27.08;9.57;;;10.50;99.50;;;;;;4232042;28;20039;-87
2022/10/13 02:41:05;;;;;;;16.45;7.53;;;10.50;99.60;;;;;;4232707;28;20070;-88
2022/10/13 02:43:06;;;;;;;19.30;8.25;;;10.40;99.80;;;;;;4230314;28;20050;-87
2022/10/13 02:45:07;;;;;;;21.83;8.63;;;10.40;99.80;;;;;;4231754;28;20126;-87
2022/10/13 02:47:08;;;;;;;21.60;8.05;;;10.40;99.90;;;;;;4231029;28;20121;-86
2022/10/13 02:49:09;;;;;;;18.25;7.65;;;10.40;99.80;;;;;;4231764;28;20132;-86
2022/10/13 02:51:10;;;;;;;19.00;8.65;;;10.40;99.90;;;;;;4231860;28;20089;-86
2022/10/13 02:53:10;;;;;;;18.08;8.60;;;10.50;99.90;;;;;;4231567;28;20494;-86
2022/10/13 02:55:12;;;;;;;15.75;8.30;;;10.40;99.90;;;;;;4231530;28;20083;-85
2022/10/13 02:57:13;;;;;;;20.40;7.97;;;10.40;99.90;;;;;;4231923;28;20044;-86
2022/10/13 02:59:14;;;;;;;20.88;8.65;;;10.40;99.90;;;;;;4230555;28;20047;-87
2022/10/13 03:01:15;;;;;;;17.92;8.25;;;10.40;99.90;;;;;;4225566;28;20111;-88
2022/10/13 03:03:16;;;;;;;17.38;9.30;;;10.40;99.90;;;;;;4214330;28;20077;-87
2022/10/13 03:05:16;;;;;;;19.05;8.43;;;10.40;99.90;;;;;;4216719;28;20052;-86
2022/10/13 03:07:17;;;;;;;18.10;8.55;;;10.40;99.90;;;;;;4213509;28;20063;-87
2022/10/13 03:09:18;;;;;;;33.42;8.77;;;10.40;99.90;;;;;;4213368;28;20048;-87
2022/10/13 03:11:19;;;;;;;23.60;9.32;;;10.40;99.90;;;;;;4214057;28;20067;-87
2022/10/13 03:13:20;;;;;;;20.85;8.60;;;10.40;99.90;;;;;;4196807;28;20052;-87
2022/10/13 03:15:20;;;;;;;24.08;8.95;;;10.40;99.90;;;;;;4220563;28;20040;-87
2022/10/13 03:17:22;;;;;;;20.48;8.10;;;10.40;99.90;;;;;;4213501;28;20044;-87
2022/10/13 03:19:23;;;;;;;24.85;9.20;;;9.10;99.90;;;;;;4231483;28;20334;-86
2022/10/13 03:21:24;;;;;;;19.65;7.90;;;10.40;99.90;;;;;;4231107;28;20562;-87
2022/10/13 03:23:26;;;;;;;24.92;9.40;;;10.40;99.90;;;;;;4230904;28;20493;-87
2022/10/13 03:25:27;;;;;;;18.67;8.75;;;10.40;99.90;;;;;;4231149;28;20062;-87
2022/10/13 03:27:28;;;;;;;25.27;10.77;;;10.40;99.90;;;;;;4213653;28;20043;-87
2022/10/13 03:29:29;;;;;;;24.23;9.35;;;10.40;99.90;;;;;;4231268;28;20043;-87
2022/10/13 03:31:30;;;;;;;18.02;7.85;;;10.40;99.90;;;;;;4230873;28;20046;-87
2022/10/13 03:40:03;;;;;;;19.80;8.07;;;10.40;99.90;;;;;;4221981;28;20093;-87
2022/10/13 03:42:04;;;;;;;22.33;9.75;;;10.40;99.90;;;;;;4230115;28;20461;-86
2022/10/13 03:44:06;;;;;;;17.40;8.60;;;10.40;99.90;;;;;;4229736;28;20043;-86
2022/10/13 03:46:08;;;;;;;22.10;8.77;;;10.40;99.90;;;;;;4232269;28;20043;-86
2022/10/13 03:48:08;;;;;;;23.80;8.63;;;10.40;99.90;;;;;;4233968;28;20130;-87
2022/10/13 03:50:09;;;;;;;26.30;9.20;;;11.00;99.90;;;;;;4232482;28;20043;-86
2022/10/13 03:52:10;;;;;;;21.85;8.57;;;10.90;99.90;;;;;;4227007;28;20465;-86
2022/10/13 03:54:12;;;;;;;22.83;9.77;;;10.40;99.90;;;;;;4217828;28;20054;-86
2022/10/13 03:56:16;;;;;;;19.98;9.15;;;10.40;99.90;;;;;;4199979;28;20429;-86
2022/10/13 03:58:17;;;;;;;19.77;10.10;;;10.40;99.90;;;;;;4217315;28;20115;-86
2022/10/13 04:00:17;;;;;;;16.92;9.07;;;10.40;99.90;;;;;;4215645;28;20040;-86
2022/10/13 04:02:18;;;;;;;20.92;9.27;;;10.40;99.90;;;;;;4217640;28;20504;-86
2022/10/13 04:04:19;;;;;;;26.88;9.90;;;10.40;99.90;;;;;;4217646;28;20047;-86
2022/10/13 04:06:20;;;;;;;18.45;8.43;;;10.40;99.90;;;;;;4217077;28;20040;-86
2022/10/13 04:08:21;;;;;;;23.60;9.95;;;10.50;99.90;;;;;;4199489;28;20529;-85
2022/10/13 04:10:22;;;;;;;23.63;10.25;;;10.40;99.90;;;;;;4216620;28;20052;-86
2022/10/13 04:12:22;;;;;;;21.48;10.07;;;10.40;99.90;;;;;;4215704;28;20135;-86
2022/10/13 04:14:23;;;;;;;19.98;9.63;;;10.50;99.90;;;;;;4217903;28;20511;-87
2022/10/13 04:16:26;;;;;;;22.35;10.95;;;10.50;99.90;;;;;;4216707;28;20051;-87
2022/10/13 04:18:27;;;;;;;28.58;10.45;;;10.80;99.90;;;;;;4199715;28;20109;-87
2022/10/13 04:20:27;;;;;;;20.58;9.82;;;10.90;99.90;;;;;;4216080;28;20072;-87
2022/10/13 04:22:28;;;;;;;18.95;8.70;;;10.50;99.90;;;;;;4216542;28;20036;-87
2022/10/13 04:24:28;;;;;;;24.23;10.63;;;10.50;99.90;;;;;;4215994;28;20128;-87
2022/10/13 04:26:34;;;;;;;23.02;10.07;;;10.50;99.90;;;;;;4199615;28;20045;-87
2022/10/13 04:28:36;;;;;;;21.85;10.32;;;10.50;99.90;;;;;;4215872;28;20051;-87
2022/10/13 04:30:37;;;;;;;25.20;10.93;;;10.60;99.90;;;;;;4220158;28;20040;-86
2022/10/13 04:32:38;;;;;;;26.45;11.27;;;10.40;99.90;;;;;;4217298;28;20040;-86
2022/10/13 04:34:40;;;;;;;20.17;10.52;;;10.40;99.90;;;;;;4250119;27;20067;-87
2022/10/13 04:36:40;;;;;;;30.80;10.05;;;10.70;99.90;;;;;;4215388;28;20032;-86
2022/10/13 04:38:42;;;;;;;30.98;12.10;;;10.40;99.90;;;;;;4216247;28;20491;-86
2022/10/13 04:40:42;;;;;;;25.63;11.23;;;10.50;99.90;;;;;;4199621;28;20178;-86
2022/10/13 04:42:43;;;;;;;21.40;9.30;;;10.40;99.90;;;;;;4217810;28;20074;-86
2022/10/13 04:44:44;;;;;;;23.00;11.05;;;10.40;99.90;;;;;;4199869;28;20045;-86
2022/10/13 04:46:45;;;;;;;21.25;9.68;;;10.40;99.90;;;;;;4217271;28;20044;-87
2022/10/13 04:48:46;;;;;;;25.17;10.38;;;10.40;99.90;;;;;;4217631;28;20075;-87
2022/10/13 04:50:56;;;;;;;25.52;11.65;;;10.40;99.90;;;;;;4224307;28;20084;-88
2022/10/13 04:52:58;;;;;;;26.77;11.30;;;10.80;99.90;;;;;;4235366;28;20096;-88
2022/10/13 04:54:59;;;;;;;26.70;11.52;;;10.40;99.90;;;;;;4217362;28;20052;-87
2022/10/13 04:57:00;;;;;;;29.17;11.63;;;10.30;99.90;;;;;;4235144;28;20047;-88
2022/10/13 04:59:06;;;;;;;30.35;11.07;;;10.50;99.90;;;;;;4216518;28;20044;-88
2022/10/13 05:01:11;;;;;;;23.80;10.98;;;10.30;99.90;;;;;;4216012;28;20044;-88
2022/10/13 05:03:12;;;;;;;24.30;10.95;;;10.30;99.90;;;;;;4233115;28;20539;-88
2022/10/13 05:05:13;;;;;;;24.75;11.50;;;10.40;99.90;;;;;;4233091;28;20043;-88
2022/10/13 05:07:13;;;;;;;27.75;12.80;;;10.30;99.90;;;;;;4233602;28;20058;-88
2022/10/13 05:09:15;;;;;;;22.95;12.18;;;10.50;99.90;;;;;;4216299;28;20048;-88
2022/10/13 05:11:18;;;;;;;29.58;10.82;;;10.40;99.90;;;;;;4233415;28;20435;-87
2022/10/13 05:13:19;;;;;;;22.55;11.30;;;10.40;99.90;;;;;;4236418;28;20059;-88
2022/10/13 05:15:21;;;;;;;25.42;11.02;;;10.60;99.90;;;;;;4234614;28;20503;-88
2022/10/13 05:17:22;;;;;;;23.83;10.88;;;10.60;99.90;;;;;;4237099;28;20078;-87
2022/10/13 05:19:22;;;;;;;24.52;11.57;;;10.40;99.90;;;;;;4216687;28;20070;-87
2022/10/13 05:21:26;;;;;;;23.83;11.77;;;10.40;99.90;;;;;;4232607;28;20054;-87
2022/10/13 05:23:27;;;;;;;25.60;11.27;;;10.60;99.90;;;;;;4234607;28;20051;-89
2022/10/13 05:25:27;;;;;;;26.63;11.30;;;10.50;99.90;;;;;;4234311;28;20044;-86
2022/10/13 05:27:28;;;;;;;24.77;13.30;;;10.40;99.90;;;;;;4234675;28;20054;-87
2022/10/13 05:29:29;;;;;;;28.60;11.73;;;10.50;99.90;;;;;;4233684;28;20143;-87
2022/10/13 05:31:33;;;;;;;30.05;12.75;;;10.50;99.90;;;;;;4217669;28;20052;-88
2022/10/13 05:33:33;;;;;;;24.48;12.48;;;10.30;99.90;;;;;;4235045;28;20043;-86
2022/10/13 05:35:35;;;;;;;25.77;11.43;;;10.80;99.90;;;;;;4234703;28;20049;-87
2022/10/13 05:37:36;;;;;;;24.98;12.27;;;10.40;99.90;;;;;;4233869;28;20535;-88
2022/10/13 05:39:36;;;;;;;27.58;13.15;;;10.40;99.90;;;;;;4217243;28;20052;-87
2022/10/13 05:41:38;;;;;;;20.65;10.75;;;10.30;99.90;;;;;;4232374;28;20492;-88
2022/10/13 05:43:41;;;;;;;27.13;12.82;;;10.40;99.90;;;;;;4233069;28;20048;-87
2022/10/13 05:45:42;;;;;;;29.40;13.55;;;10.40;99.90;;;;;;4233714;28;20036;-89
2022/10/13 05:47:42;;;;;;;32.35;11.90;;;10.30;99.90;;;;;;4232545;28;20229;-88
2022/10/13 05:49:43;;;;;;;22.38;11.32;;;10.30;99.90;;;;;;4233292;28;20119;-90
2022/10/13 05:51:49;;;;;;;26.60;12.05;;;10.40;99.90;;;;;;4215599;28;20050;-89
2022/10/13 05:54:11;;;;;;;28.95;12.73;;;10.50;99.90;;;;;;4216081;28;20116;-90
2022/10/13 05:56:17;;;;;;;29.20;13.00;;;10.30;99.90;;;;;;4230796;28;20046;-87
2022/10/13 05:58:19;;;;;;;30.70;13.77;;;10.30;99.90;;;;;;4233879;28;20043;-87
2022/10/13 06:00:19;;;;;;;26.88;12.55;;;10.40;99.90;;;;;;4215954;28;20127;-86
2022/10/13 06:02:23;;;;;;;27.58;13.27;;;10.40;99.90;;;;;;4235019;28;20036;-87
2022/10/13 06:04:30;;;;;;;30.67;12.68;;;10.40;99.90;;;;;;4234730;28;20093;-88
2022/10/13 06:06:38;;;;;;;30.33;12.88;;;10.90;99.90;;;;;;4238635;28;20039;-87
2022/10/13 06:08:41;;;;;;;29.35;12.57;;;10.40;99.90;;;;;;4234976;28;20043;-88
2022/10/13 06:10:42;;;;;;;24.23;12.10;;;10.30;99.90;;;;;;4217797;28;20048;-89
2022/10/13 06:12:46;;;;;;;28.08;11.98;;;10.40;99.90;;;;;;4233179;28;20665;-88
2022/10/13 06:14:47;;;;;;;26.98;11.65;;;10.40;99.90;;;;;;4232791;28;20051;-87
2022/10/13 06:16:48;;;;;;;26.50;12.27;;;11.20;99.90;;;;;;4215640;28;20547;-88
2022/10/13 06:18:49;;;;;;;30.25;13.38;;;10.50;99.90;;;;;;4214705;28;20047;-88
2022/10/13 06:20:51;;;;;;;28.05;13.50;;;11.50;99.90;;;;;;4233964;28;20028;-87
2022/10/13 06:22:55;;;;;;;30.80;14.30;;;10.40;99.90;;;;;;4217390;28;20544;-87
2022/10/13 06:24:57;;;;;;;28.70;13.02;;;10.30;99.90;;;;;;4234732;28;20094;-88
2022/10/13 06:26:58;;;;;;;26.95;14.10;;;10.40;99.90;;;;;;4233699;28;20051;-88
2022/10/13 06:28:59;;;;;;;32.17;13.93;;;11.30;99.90;;;;;;4222796;28;20055;-89
2022/10/13 06:30:59;;;;;;;26.95;12.48;;;10.60;99.90;;;;;;4217372;28;20068;-88
2022/10/13 06:33:00;;;;;;;26.85;13.80;;;10.40;99.90;;;;;;4216993;28;20044;-88
2022/10/13 06:35:01;;;;;;;24.85;12.80;;;10.40;99.90;;;;;;4215815;28;20085;-89
2022/10/13 06:37:03;;;;;;;32.13;14.10;;;10.50;99.90;;;;;;4200333;28;20052;-89
2022/10/13 06:39:03;;;;;;;39.90;13.90;;;10.40;99.90;;;;;;4216989;28;20556;-89
2022/10/13 06:41:05;;;;;;;35.72;14.20;;;10.80;99.90;;;;;;4218297;28;20101;-86
2022/10/13 06:43:05;;;;;;;27.48;13.80;;;10.50;99.90;;;;;;4216350;28;20495;-88
2022/10/13 06:45:07;;;;;;;30.20;13.05;;;10.50;99.90;;;;;;4215522;28;20048;-88
2022/10/13 06:47:07;;;;;;;31.00;13.50;;;9.30;99.90;;;;;;4199963;28;20059;-87
2022/10/13 06:49:09;;;;;;;29.02;14.05;;;10.60;99.90;;;;;;4216558;28;20040;-88
2022/10/13 06:51:10;;;;;;;30.98;14.30;;;10.60;99.90;;;;;;4216554;28;20538;-88
2022/10/13 06:53:11;;;;;;;38.85;14.88;;;11.50;99.90;;;;;;4213549;28;20048;-86
2022/10/13 06:55:12;;;;;;;31.80;14.18;;;10.80;99.90;;;;;;4215851;28;20429;-86
2022/10/13 06:57:12;;;;;;;33.03;13.75;;;11.00;99.90;;;;;;4215011;28;20048;-86
2022/10/13 06:59:13;;;;;;;38.33;14.75;;;10.70;99.90;;;;;;4214392;28;20102;-86
2022/10/13 07:01:14;;;;;;;30.67;14.38;;;10.70;99.90;;;;;;4197217;28;20064;-85
2022/10/13 07:03:15;;;;;;;31.65;14.07;;;10.90;99.90;;;;;;4212035;28;20140;-86
2022/10/13 07:05:19;;;;;;;33.03;14.30;;;10.80;99.90;;;;;;4232768;28;20586;-86
2022/10/13 07:07:21;;;;;;;29.77;13.57;;;10.80;99.90;;;;;;4231722;28;20043;-86
2022/10/13 07:09:22;;;;;;;30.77;12.77;;;10.80;99.90;;;;;;4232265;28;20082;-86
2022/10/13 07:11:22;;;;;;;29.42;12.77;;;9.80;99.90;;;;;;4232456;28;20051;-86
2022/10/13 07:13:23;;;;;;;25.77;12.57;;;10.90;99.90;;;;;;4231750;28;20067;-86
2022/10/13 07:15:25;;;;;;;26.80;12.38;;;10.90;99.90;;;;;;4231221;28;20525;-87
2022/10/13 07:17:26;;;;;;;29.45;12.43;;;11.00;99.90;;;;;;4232987;28;20039;-87
2022/10/13 07:19:27;;;;;;;28.98;13.05;;;11.00;99.90;;;;;;4231435;28;20036;-87
2022/10/13 07:21:28;;;;;;;26.25;12.52;;;11.00;99.90;;;;;;4231777;28;20046;-87
2022/10/13 07:23:29;;;;;;;28.73;12.73;;;11.10;99.90;;;;;;4216037;28;20054;-87
2022/10/13 07:25:30;;;;;;;27.15;12.90;;;10.40;99.90;;;;;;4233317;28;20043;-87
2022/10/13 07:27:32;;;;;;;28.25;12.55;;;11.30;99.90;;;;;;4231808;28;20047;-87
2022/10/13 07:29:33;;;;;;;32.58;12.52;;;11.30;99.90;;;;;;4201845;28;20085;-86
2022/10/13 07:31:35;;;;;;;29.25;13.00;;;11.30;99.90;;;;;;4198910;28;20048;-86
2022/10/13 07:33:36;;;;;;;28.33;12.40;;;11.30;99.90;;;;;;4215016;28;20052;-86
2022/10/13 07:35:40;;;;;;;29.05;13.60;;;11.30;99.90;;;;;;4216686;28;20048;-86
2022/10/13 07:37:44;;;;;;;24.55;12.10;;;11.40;99.90;;;;;;4216054;28;20085;-87
2022/10/13 07:39:45;;;;;;;28.70;12.45;;;11.60;99.90;;;;;;4198635;28;20047;-87
2022/10/13 07:41:45;;;;;;;29.38;13.38;;;11.50;99.90;;;;;;4199189;28;20045;-87
2022/10/13 07:43:46;;;;;;;28.00;12.15;;;11.50;99.90;;;;;;4215458;28;20059;-87
2022/10/13 07:45:47;;;;;;;26.60;13.77;;;11.60;99.90;;;;;;4215866;28;20447;-86
2022/10/13 07:47:48;;;;;;;24.65;11.98;;;11.60;99.90;;;;;;4214300;28;20059;-87
2022/10/13 07:49:48;;;;;;;29.40;12.77;;;11.70;99.90;;;;;;4217358;28;20537;-85
2022/10/13 07:51:50;;;;;;;29.33;12.73;;;11.70;99.90;;;;;;4231973;28;20035;-85
2022/10/13 07:53:51;;;;;;;31.35;12.65;;;11.70;99.90;;;;;;4230642;28;20096;-86
2022/10/13 07:55:52;;;;;;;25.38;12.13;;;11.50;99.90;;;;;;4231944;28;20039;-86
2022/10/13 07:57:52;;;;;;;24.20;12.43;;;11.70;99.90;;;;;;4232372;28;20534;-86
2022/10/13 07:59:53;;;;;;;29.65;14.40;;;11.70;99.90;;;;;;4231254;28;20058;-86
2022/10/13 08:01:54;;;;;;;26.90;12.68;;;11.80;99.90;;;;;;4232886;28;20048;-87
2022/10/13 08:03:58;;;;;;;26.10;12.55;;;11.70;99.90;;;;;;4231616;28;20043;-86
2022/10/13 08:06:00;;;;;;;26.70;12.93;;;11.70;99.90;;;;;;4232989;28;20047;-88
2022/10/13 08:08:00;;;;;;;26.75;13.95;;;11.80;99.90;;;;;;4234996;28;20055;-86
2022/10/13 08:10:01;;;;;;;28.42;12.65;;;11.80;99.90;;;;;;4219891;28;20048;-88
2022/10/13 08:12:03;;;;;;;34.38;14.05;;;11.90;99.90;;;;;;4247965;28;20072;-87
2022/10/13 08:14:04;;;;;;;30.45;13.30;;;11.90;99.90;;;;;;4230156;28;20121;-87
2022/10/13 08:16:05;;;;;;;31.27;13.00;;;12.00;99.90;;;;;;4247951;28;20031;-88
2022/10/13 08:18:06;;;;;;;30.50;12.55;;;12.00;99.90;;;;;;4245215;28;20039;-88
2022/10/13 08:20:07;;;;;;;25.42;12.43;;;12.10;99.90;;;;;;4240897;28;20066;-87
2022/10/13 08:22:09;;;;;;;26.60;12.48;;;12.00;99.90;;;;;;4231711;28;20544;-88
2022/10/13 08:24:13;;;;;;;23.98;11.60;;;12.10;99.90;;;;;;4232923;28;20043;-87
2022/10/13 08:26:25;;;;;;;27.50;12.60;;;12.10;99.90;;;;;;4215568;28;20052;-88
2022/10/13 08:28:30;;;;;;;26.90;11.98;;;12.10;99.90;;;;;;4232651;28;20039;-88
2022/10/13 08:30:37;;;;;;;21.48;11.32;;;12.00;99.90;;;;;;4231316;28;20073;-88
2022/10/13 08:32:38;;;;;;;26.95;12.93;;;12.10;99.90;;;;;;4233740;28;20040;-88
2022/10/13 08:34:39;;;;;;;26.63;12.23;;;12.10;99.90;;;;;;4233153;28;20523;-88
2022/10/13 08:36:40;;;;;;;34.13;14.05;;;12.10;99.90;;;;;;4232491;28;20423;-88
2022/10/13 08:38:40;;;;;;;27.30;13.15;;;12.10;99.90;;;;;;4232573;28;20040;-88
2022/10/13 08:40:48;;;;;;;27.48;12.95;;;12.10;99.90;;;;;;4234109;28;20085;-87
2022/10/13 08:42:50;;;;;;;26.33;13.05;;;12.10;99.90;;;;;;4233469;28;20051;-88
2022/10/13 08:44:57;;;;;;;27.30;12.93;;;12.10;99.90;;;;;;4235921;28;20044;-88
2022/10/13 08:47:15;;;;;;;33.97;12.68;;;12.30;99.90;;;;;;4218219;28;20126;-88
2022/10/13 08:49:17;;;;;;;22.73;12.65;;;12.10;99.90;;;;;;4234212;28;20044;-88
2022/10/13 08:51:18;;;;;;;23.98;11.70;;;12.20;99.90;;;;;;4234481;28;20044;-88
2022/10/13 08:53:35;;;;;;;34.03;13.02;;;12.20;99.90;;;;;;4218381;28;20080;-87
2022/10/13 08:55:46;;;;;;;26.40;12.65;;;12.70;99.90;;;;;;4235216;27;20478;-87
2022/10/13 08:57:46;;;;;;;29.52;12.43;;;12.30;99.90;;;;;;4235989;28;20230;-87
2022/10/13 08:59:48;;;;;;;29.85;14.00;;;12.20;99.90;;;;;;4235055;28;20044;-88
2022/10/13 09:01:58;;;;;;;23.42;11.95;;;12.20;99.90;;;;;;4234388;28;20077;-88
2022/10/13 09:04:20;;;;;;;29.85;14.25;;;12.20;99.90;;;;;;4233515;28;20086;-86
2022/10/13 09:06:36;;;;;;;29.80;13.90;;;12.30;99.90;;;;;;4233917;28;20139;-86
2022/10/13 09:08:43;;;;;;;31.83;13.82;;;12.30;99.90;;;;;;4215586;28;20101;-86
2022/10/13 09:10:50;;;;;;;26.95;13.35;;;12.40;99.90;;;;;;4233843;28;20120;-86
2022/10/13 09:12:50;;;;;;;33.45;13.85;;;12.30;99.90;;;;;;4216161;28;20087;-86
2022/10/13 09:15:04;;;;;;;28.48;14.57;;;12.30;99.90;;;;;;4232744;28;20039;-86
2022/10/13 09:17:17;;;;;;;29.88;13.48;;;12.40;99.90;;;;;;4216488;28;20050;-86
2022/10/13 09:19:27;;;;;;;30.73;13.55;;;12.40;99.90;;;;;;4232819;28;20050;-87
2022/10/13 09:21:29;;;;;;;32.53;14.23;;;12.40;99.90;;;;;;4233872;28;20055;-86
2022/10/13 09:23:29;;;;;;;32.63;13.80;;;12.50;99.90;;;;;;4234575;28;20085;-86
2022/10/13 09:25:39;;;;;;;30.50;14.98;;;12.50;99.90;;;;;;4233537;28;20537;-86
2022/10/13 09:27:48;;;;;;;30.75;14.20;;;12.80;99.90;;;;;;4234605;28;20485;-87
2022/10/13 09:29:48;;;;;;;32.92;15.80;;;12.50;99.90;;;;;;4232069;28;20043;-84
2022/10/13 09:31:50;;;;;;;28.38;14.73;;;12.50;99.90;;;;;;4231960;28;20065;-85
2022/10/13 09:34:12;;;;;;;32.38;14.40;;;12.60;99.90;;;;;;4215917;28;20090;-87
2022/10/13 09:36:15;;;;;;;34.72;15.68;;;12.60;99.90;;;;;;4216317;28;20040;-87
2022/10/13 09:38:19;;;;;;;32.53;16.00;;;13.20;99.90;;;;;;4234282;28;20040;-87
2022/10/13 09:40:20;;;;;;;31.67;14.80;;;12.60;99.90;;;;;;4234291;28;20112;-86
2022/10/13 09:42:26;;;;;;;29.38;14.15;;;12.70;99.90;;;;;;4233307;28;20473;-86
2022/10/13 09:44:30;;;;;;;29.42;14.52;;;12.70;99.90;;;;;;4233170;28;20497;-87
2022/10/13 09:46:43;;;;;;;37.03;15.88;;;12.70;99.90;;;;;;4232998;28;20044;-86
2022/10/13 09:48:48;;;;;;;29.45;14.75;;;12.70;99.90;;;;;;4232743;28;20493;-87
2022/10/13 09:50:52;;;;;;;25.67;14.52;;;12.80;99.90;;;;;;4232498;28;20046;-87
2022/10/13 09:53:29;;;;;;;35.70;16.45;;;12.70;99.90;;;;;;4232064;28;20490;-87
2022/10/13 09:55:33;;;;;;;32.75;15.32;;;12.90;99.90;;;;;;4232999;28;20447;-85
2022/10/13 09:57:54;;;;;;;34.25;15.65;;;12.70;99.90;;;;;;4215604;28;20068;-86
2022/10/13 10:00:13;;;;;;;32.83;15.60;;;12.70;99.90;;;;;;4215021;28;20052;-87
2022/10/13 10:02:23;;;;;;;34.55;15.20;;;12.80;99.90;;;;;;4232102;28;20047;-86
2022/10/13 10:04:30;;;;;;;29.30;13.82;;;12.80;99.90;;;;;;4233404;28;20066;-87
2022/10/13 10:06:33;;;;;;;33.88;14.70;;;12.80;99.90;;;;;;4231843;28;20517;-87
2022/10/13 10:09:11;;;;;;;28.40;15.13;;;12.90;99.90;;;;;;4215409;28;20083;-84
2022/10/13 10:11:18;;;;;;;29.67;14.57;;;13.00;99.90;;;;;;4232582;28;20049;-85
2022/10/13 10:13:19;;;;;;;29.73;14.48;;;13.00;99.90;;;;;;4232388;28;20055;-85
2022/10/13 10:15:25;;;;;;;25.38;14.32;;;13.00;99.90;;;;;;4232788;28;20090;-84
2022/10/13 10:17:37;;;;;;;29.50;13.63;;;13.10;99.90;;;;;;4232412;28;20090;-84
2022/10/13 10:19:53;;;;;;;27.85;14.48;;;13.10;99.90;;;;;;4231355;28;20043;-84
2022/10/13 10:22:14;;;;;;;25.73;13.07;;;13.10;99.90;;;;;;4233022;28;20039;-83
2022/10/13 10:24:34;;;;;;;28.13;13.77;;;13.10;99.90;;;;;;4231475;28;20046;-84
2022/10/13 10:26:37;;;;;;;29.10;14.20;;;13.20;99.90;;;;;;4231525;28;20075;-84
2022/10/13 10:29:10;;;;;;;28.40;14.35;;;13.20;99.90;;;;;;4214135;28;20130;-84
2022/10/13 10:31:34;;;;;;;26.55;13.50;;;13.30;99.90;;;;;;4218693;28;20894;-84
2022/10/13 10:34:20;;;;;;;34.50;14.55;;;13.30;99.90;;;;;;4214328;28;20059;-84
2022/10/13 10:37:00;;;;;;;24.98;13.45;;;13.40;99.90;;;;;;4198821;28;20493;-84
2022/10/13 10:39:20;;;;;;;25.83;14.07;;;13.40;99.90;;;;;;4222814;28;20512;-84
2022/10/13 10:41:29;;;;;;;28.88;13.65;;;13.40;99.90;;;;;;4214151;28;20127;-84
2022/10/13 10:43:33;;;;;;;28.23;14.23;;;13.40;99.90;;;;;;4230528;28;20040;-84